»·PEaware :: N197MG KAVX-KSAN

N197MG :: KAVX-KSAN

FLIGHT INFORMATION

Flight Status: Arrived
Operator: Privately registered:
United States
More flights under this callsign
Pilot: Mike G. (11411)
Aircraft: PIPER PA-31/31P NAVAJO CHIEFTAIN
(PA31)
More flights by this aircraft type
Origin: KAVX Catalina
United States
Destination: KSAN San Diego Intl-Lindbergh
United States
More flights between these airports :: More routes between these airports
Route: +SXC V208 OCN V23 MZB
File this flight plan on PilotEdge
Remarks: I-8 Rating
Altitude:
(Current/Filed)
5,000ft
Speed:
(Current/Filed)
160kts
Departed: 08-May-18 06:13 PM
Arrived: 08-May-18 07:01 PM
Distance/Time
Traveled:
74nm/0:48
Distance/Time
To Go:
Arrived

Flight Plot

Page will automatically refresh every two minutes.


Map Options




Map Legend


Flown Route
Filed Route
Departure Airport
Arrival Airport
Navaid (VOR, NDB)
Fix

Horizontal Profiles

Position Reports

Time Latitude Longitude Heading Altitude Ground
Speed
08-May-18 17:43 33.403518 -118.414797 139 1606ft 0kts
08-May-18 17:44 33.403518 -118.414797 139 1606ft 0kts
08-May-18 17:45 33.403518 -118.414797 139 1606ft 0kts
08-May-18 17:46 33.403518 -118.414797 139 1606ft 0kts
08-May-18 17:47 33.403518 -118.414797 139 1606ft 0kts
08-May-18 17:48 33.403518 -118.414797 139 1606ft 0kts
08-May-18 17:49 33.403518 -118.414797 139 1606ft 0kts
08-May-18 17:50 33.403518 -118.414797 139 1606ft 0kts
08-May-18 17:51 33.403518 -118.414797 139 1606ft 0kts
08-May-18 17:52 33.403518 -118.414797 139 1606ft 0kts
08-May-18 17:53 33.403518 -118.414797 139 1606ft 0kts
08-May-18 17:53 33.403518 -118.414797 139 1606ft 0kts
08-May-18 17:55 33.403518 -118.414797 139 1606ft 0kts
08-May-18 17:56 33.403518 -118.414797 139 1606ft 0kts
08-May-18 17:57 33.403518 -118.414797 139 1606ft 0kts
08-May-18 17:58 33.403518 -118.414797 139 1606ft 0kts
08-May-18 17:59 33.403518 -118.414797 139 1606ft 0kts
08-May-18 18:00 33.403518 -118.414797 139 1606ft 0kts
08-May-18 18:01 33.403518 -118.414797 139 1606ft 0kts
08-May-18 18:02 33.403517 -118.414796 139 1606ft 0kts
08-May-18 18:03 33.403516 -118.414795 139 1606ft 0kts
08-May-18 18:04 33.403558 -118.414837 139 1606ft 2kts
08-May-18 18:05 33.403919 -118.415196 140 1606ft 0kts
08-May-18 18:06 33.403748 -118.416706 8 1606ft 6kts
08-May-18 18:07 33.405188 -118.414456 54 1606ft 9kts
08-May-18 18:08 33.406454 -118.412338 54 1606ft 8kts
08-May-18 18:09 33.406848 -118.411696 52 1606ft 0kts
08-May-18 18:10 33.406848 -118.411696 52 1606ft 0kts
08-May-18 18:11 33.406860 -118.411677 52 1606ft 2kts
08-May-18 18:12 33.407191 -118.412050 233 1606ft 9kts
08-May-18 18:13 33.393969 -118.433092 225 2643ft 86kts
08-May-18 18:14 33.376304 -118.465864 247 3586ft 125kts
08-May-18 18:15 33.345465 -118.457898 108 4056ft 167kts
08-May-18 18:16 33.370459 -118.417408 25 3752ft 180kts
08-May-18 18:17 33.381854 -118.380626 159 4044ft 160kts
08-May-18 18:18 33.341355 -118.393750 145 4022ft 172kts
08-May-18 18:19 33.358681 -118.356853 26 4106ft 158kts
08-May-18 18:20 33.361727 -118.309760 105 4025ft 166kts
08-May-18 18:21 33.353165 -118.253499 97 3987ft 177kts
08-May-18 18:22 33.345563 -118.195238 97 3998ft 176kts
08-May-18 18:23 33.337920 -118.137221 97 3995ft 176kts
08-May-18 18:24 33.330233 -118.079272 97 3991ft 176kts
08-May-18 18:25 33.322569 -118.021656 98 4118ft 169kts
08-May-18 18:26 33.315705 -117.969657 98 4974ft 161kts
08-May-18 18:27 33.308104 -117.913307 98 4976ft 176kts
08-May-18 18:28 33.300321 -117.855513 98 4975ft 176kts
08-May-18 18:29 33.293516 -117.805298 98 4974ft 176kts
08-May-18 18:30 33.285753 -117.748180 98 4976ft 176kts
08-May-18 18:31 33.277068 -117.690265 99 4977ft 176kts
08-May-18 18:32 33.268333 -117.632545 99 4978ft 176kts
08-May-18 18:33 33.259603 -117.574966 99 5001ft 176kts
08-May-18 18:34 33.252466 -117.516754 97 5001ft 176kts
08-May-18 18:35 33.245473 -117.458627 97 5003ft 177kts
08-May-18 18:36 33.223980 -117.410106 161 4997ft 176kts
08-May-18 18:37 33.177320 -117.391151 161 4989ft 176kts
08-May-18 18:38 33.131030 -117.371624 161 4988ft 176kts
08-May-18 18:39 33.084587 -117.352085 161 4989ft 176kts
08-May-18 18:40 33.038308 -117.332659 161 4987ft 176kts
08-May-18 18:41 32.991955 -117.313213 161 4989ft 177kts
08-May-18 18:42 32.945343 -117.293675 161 4990ft 177kts
08-May-18 18:43 32.898874 -117.274233 161 4993ft 177kts
08-May-18 18:44 32.857928 -117.245152 123 5007ft 177kts
08-May-18 18:45 32.831352 -117.195314 121 5001ft 178kts
08-May-18 18:46 32.805048 -117.145519 121 5006ft 178kts
08-May-18 18:47 32.781126 -117.094003 112 5006ft 178kts
08-May-18 18:48 32.762318 -117.039583 111 5000ft 178kts
08-May-18 18:49 32.750598 -116.982542 101 4994ft 178kts
08-May-18 18:50 32.739925 -116.924996 101 4989ft 178kts
08-May-18 18:51 32.724793 -116.870418 147 4982ft 175kts
08-May-18 18:52 32.683965 -116.882237 240 4499ft 156kts
08-May-18 18:53 32.683722 -116.929857 267 3871ft 138kts
08-May-18 18:54 32.679493 -116.971471 282 3888ft 120kts
08-May-18 18:55 32.689993 -117.008441 287 3815ft 117kts
08-May-18 18:56 32.699182 -117.047065 285 2781ft 118kts
08-May-18 18:57 32.707892 -117.083546 283 2128ft 107kts
08-May-18 18:58 32.716973 -117.118211 285 1306ft 106kts
08-May-18 18:59 32.724346 -117.150343 281 608ft 94kts
08-May-18 19:00 32.731582 -117.181502 283 26ft 89kts
08-May-18 19:01 32.733034 -117.190423 194 19ft 6kts
08-May-18 19:02 32.732887 -117.190467 193 19ft 0kts
08-May-18 19:03 32.730999 -117.191011 193 19ft 0kts
08-May-18 19:04 32.731000 -117.191011 193 19ft 0kts
08-May-18 19:05 32.731000 -117.191011 193 19ft 0kts

Navigation Log

Ident Type
1. KAVX Airport
2. SXC Navaid
3. AVOLS Fix
4. PACIF Fix
5. HUBRD Fix
6. OCN Navaid
7. HURSI Fix
8. CARIF Fix
9. MZB Navaid
10. KSAN Airport